Terminal Aerodrome Forecast
Issued by NWS Wilmington, OH

Current Version | Previous Version | Text Only | Print | Product List | Glossary On
Versions: 1 2 3 4 5 6 7 8 9 10 11 12 13 14 15 16 17 18 19 20 21 22 23 24 25
000 FTUS41 KILN 040539 TAFCMH TAF KCMH 040539Z 0406/0506 VRB03KT P6SM SCT070 FM041200 23003KT P6SM SKC FM041600 27010KT P6SM SCT040 FM050000 29005KT P6SM SKC=

USA.gov is the U.S. government's official web portal to all federal, state and local government web resources and services.